Time;durP1;ratioP1;P1;durP2;ratioP2;P2;SDS_P1;SDS_P2;PMS_P1;PMS_P2;Temp;Humidity;BMP_temperature;BMP_pressure;BME280_temperature;BME280_humidity;BME280_pressure;Samples;Min_cycle;Max_cycle;Signal;HPM_P1;HPM_P2
2022/12/30 00:01:15;;;;;;;0.10;0.10;;;7.10;77.50;;;;;;5012295;28;20037;-75
2022/12/30 00:03:41;;;;;;;0.20;0.10;;;7.10;78.30;;;;;;5011106;28;20434;-75
2022/12/30 00:06:14;;;;;;;0.22;0.10;;;7.10;77.30;;;;;;5011989;28;20466;-75
2022/12/30 00:08:47;;;;;;;1.65;0.10;;;7.00;77.80;;;;;;5012324;28;20030;-74
2022/12/30 00:11:22;;;;;;;1.98;0.30;;;7.10;78.20;;;;;;5012226;28;20499;-75
2022/12/30 00:33:39;;;;;;;0.30;0.30;;;6.90;78.00;;;;;;5013513;28;20430;-77
2022/12/30 00:36:06;;;;;;;2.40;0.40;;;6.90;78.20;;;;;;5012392;28;20100;-75
2022/12/30 00:38:31;;;;;;;0.77;0.20;;;6.90;78.40;;;;;;5011713;28;20037;-75
2022/12/30 00:43:51;;;;;;;1.00;0.20;;;6.90;78.90;;;;;;4959856;28;20042;-75
2022/12/30 00:46:18;;;;;;;0.38;0.20;;;6.80;77.80;;;;;;5012093;28;20363;-75
2022/12/30 00:57:00;;;;;;;1.55;0.30;;;6.90;77.90;;;;;;5015769;28;20061;-75
2022/12/30 00:59:26;;;;;;;1.15;0.10;;;6.90;77.50;;;;;;5015989;28;20097;-75
2022/12/30 01:01:52;;;;;;;0.88;0.30;;;7.00;77.60;;;;;;5012433;28;20129;-75
2022/12/30 01:04:17;;;;;;;0.63;0.20;;;7.00;76.80;;;;;;5015696;28;20030;-75
2022/12/30 01:06:43;;;;;;;0.40;0.25;;;7.00;76.40;;;;;;5011835;28;20545;-75
2022/12/30 01:09:08;;;;;;;0.50;0.30;;;7.00;76.90;;;;;;4995449;28;20030;-75
2022/12/30 01:11:34;;;;;;;5.30;0.70;;;7.10;76.50;;;;;;5012971;28;20463;-75
2022/12/30 01:14:01;;;;;;;1.17;0.60;;;7.10;76.30;;;;;;5012016;28;20040;-75
2022/12/30 01:16:27;;;;;;;1.65;0.80;;;7.10;76.90;;;;;;5015372;28;20076;-75
2022/12/30 01:18:52;;;;;;;1.85;0.40;;;7.10;76.80;;;;;;4998341;28;20030;-79
2022/12/30 01:21:18;;;;;;;0.55;0.10;;;7.10;76.90;;;;;;5015695;28;20038;-75
2022/12/30 01:23:44;;;;;;;0.30;0.10;;;7.00;77.20;;;;;;5015237;28;20021;-81
2022/12/30 01:26:10;;;;;;;0.20;0.10;;;7.10;77.40;;;;;;5015423;28;20034;-80
2022/12/30 01:28:36;;;;;;;0.25;0.20;;;7.10;77.40;;;;;;5015111;28;20462;-78
2022/12/30 01:31:07;;;;;;;2.15;0.35;;;7.10;77.40;;;;;;5015102;28;20030;-76
2022/12/30 01:33:33;;;;;;;0.17;0.10;;;7.20;77.80;;;;;;5014985;28;20029;-82
2022/12/30 01:35:58;;;;;;;2.53;0.70;;;7.20;77.90;;;;;;5015266;28;20030;-75
2022/12/30 01:38:24;;;;;;;1.90;0.63;;;7.30;79.00;;;;;;5015226;28;20112;-75
2022/12/30 01:40:50;;;;;;;1.35;0.60;;;7.20;79.60;;;;;;5016146;28;20042;-75
2022/12/30 01:43:16;;;;;;;0.77;0.30;;;7.10;79.50;;;;;;5014941;28;20493;-75
2022/12/30 01:45:47;;;;;;;1.25;0.20;;;7.10;79.00;;;;;;5014602;28;20029;-75
2022/12/30 01:48:26;;;;;;;0.25;0.10;;;7.10;78.80;;;;;;5014839;28;20026;-75
2022/12/30 01:50:57;;;;;;;0.68;0.10;;;7.00;78.00;;;;;;5015037;28;20029;-75
2022/12/30 01:53:26;;;;;;;0.15;0.10;;;7.00;78.10;;;;;;5014766;28;20022;-75
2022/12/30 01:55:59;;;;;;;0.88;0.20;;;7.00;78.20;;;;;;5014672;28;20030;-75
2022/12/30 01:58:33;;;;;;;0.40;0.10;;;7.00;78.10;;;;;;5014474;28;20028;-76
2022/12/30 02:00:58;;;;;;;1.02;0.17;;;7.00;78.40;;;;;;5014368;28;20099;-76
2022/12/30 02:03:32;;;;;;;1.30;0.25;;;6.90;78.40;;;;;;5014814;28;20030;-76
2022/12/30 02:05:57;;;;;;;0.60;0.10;;;6.90;79.40;;;;;;5014733;28;20030;-76
2022/12/30 02:08:24;;;;;;;0.68;0.20;;;6.90;78.50;;;;;;5014544;28;20129;-75
2022/12/30 02:10:53;;;;;;;1.48;0.20;;;6.90;78.50;;;;;;5014462;28;20026;-75
2022/12/30 02:13:20;;;;;;;0.28;0.20;;;6.90;78.80;;;;;;4998177;28;20030;-75
2022/12/30 02:15:56;;;;;;;0.38;0.20;;;6.90;79.00;;;;;;5014743;28;20462;-76
2022/12/30 02:18:36;;;;;;;0.20;0.20;;;6.90;79.20;;;;;;5014712;28;20026;-76
2022/12/30 02:21:38;;;;;;;0.40;0.10;;;7.00;79.30;;;;;;5013862;28;20038;-75
2022/12/30 02:24:29;;;;;;;2.92;0.20;;;6.90;78.80;;;;;;5014379;28;20439;-76
2022/12/30 02:27:16;;;;;;;0.50;0.20;;;6.80;78.90;;;;;;5013277;28;20036;-76
2022/12/30 02:30:00;;;;;;;0.50;0.10;;;6.80;78.70;;;;;;5013972;28;20022;-77
2022/12/30 02:32:33;;;;;;;0.28;0.00;;;6.80;79.10;;;;;;5014070;28;20025;-75
2022/12/30 02:35:25;;;;;;;0.13;0.10;;;6.80;79.20;;;;;;5014141;28;20116;-76
2022/12/30 02:38:43;;;;;;;0.13;0.10;;;6.80;78.80;;;;;;5014308;28;20064;-75
2022/12/30 02:47:04;;;;;;;0.25;0.20;;;6.90;79.10;;;;;;5015016;28;20036;-76
2022/12/30 02:49:31;;;;;;;0.40;0.10;;;7.00;79.00;;;;;;5013897;28;20029;-76
2022/12/30 02:52:17;;;;;;;0.70;0.20;;;7.00;78.10;;;;;;5013719;28;20164;-75
2022/12/30 02:54:46;;;;;;;0.60;0.10;;;7.00;78.00;;;;;;5013532;28;20053;-81
2022/12/30 02:57:40;;;;;;;1.35;0.15;;;7.10;78.50;;;;;;5013584;28;20022;-81
2022/12/30 03:06:03;;;;;;;0.03;0.00;;;7.00;78.30;;;;;;5014657;28;20032;-75
2022/12/30 03:08:34;;;;;;;0.10;0.10;;;7.00;78.10;;;;;;5013303;28;20030;-75
2022/12/30 03:11:12;;;;;;;0.03;0.03;;;7.00;78.10;;;;;;5013700;28;20113;-74
2022/12/30 03:13:52;;;;;;;0.03;0.03;;;6.90;78.00;;;;;;5013469;28;20030;-75
2022/12/30 03:16:26;;;;;;;0.43;0.10;;;6.80;78.80;;;;;;5013102;28;20038;-77
2022/12/30 03:18:53;;;;;;;0.10;0.00;;;6.70;79.00;;;;;;5013274;28;20072;-78
2022/12/30 03:21:20;;;;;;;0.20;0.10;;;6.60;79.40;;;;;;5013374;28;20034;-76
2022/12/30 03:29:26;;;;;;;1.35;0.10;;;6.50;80.40;;;;;;5014697;28;20033;-75
2022/12/30 03:31:54;;;;;;;0.17;0.10;;;6.40;80.40;;;;;;4996854;28;20402;-80
2022/12/30 03:34:20;;;;;;;0.03;0.03;;;6.40;80.50;;;;;;4997072;28;20038;-80
2022/12/30 03:36:49;;;;;;;0.10;0.10;;;6.40;80.60;;;;;;5013474;28;20025;-81
2022/12/30 03:39:21;;;;;;;0.45;0.30;;;6.40;80.50;;;;;;5014590;28;20026;-78
2022/12/30 03:41:49;;;;;;;0.13;0.10;;;6.40;80.70;;;;;;5013124;28;20053;-76
2022/12/30 03:44:17;;;;;;;0.32;0.20;;;6.40;80.90;;;;;;5020579;28;20045;-80
2022/12/30 03:46:46;;;;;;;1.75;0.20;;;6.40;81.30;;;;;;5013310;28;20378;-81
2022/12/30 03:49:12;;;;;;;0.85;0.17;;;6.30;81.40;;;;;;5012982;28;20026;-78
2022/12/30 03:51:37;;;;;;;0.20;0.20;;;6.40;81.40;;;;;;5012910;28;20498;-77
2022/12/30 03:54:03;;;;;;;0.20;0.17;;;6.30;81.30;;;;;;5013028;28;20022;-75
2022/12/30 03:56:29;;;;;;;0.80;0.10;;;6.30;81.60;;;;;;5013416;28;20474;-78
2022/12/30 03:58:56;;;;;;;0.15;0.10;;;6.30;81.90;;;;;;5012781;28;20033;-83
2022/12/30 04:01:21;;;;;;;0.30;0.10;;;6.30;81.70;;;;;;5012980;28;20041;-81
2022/12/30 04:03:47;;;;;;;0.13;0.10;;;6.30;81.60;;;;;;5014152;28;20022;-80
2022/12/30 04:06:13;;;;;;;0.35;0.22;;;6.30;81.50;;;;;;5014239;28;20030;-75
2022/12/30 04:08:38;;;;;;;0.10;0.10;;;6.30;81.60;;;;;;5012058;28;20033;-75
2022/12/30 04:11:04;;;;;;;0.28;0.13;;;6.30;81.50;;;;;;5012240;28;20434;-75
2022/12/30 04:13:30;;;;;;;0.52;0.30;;;6.30;81.60;;;;;;5013503;28;20033;-78
2022/12/30 04:15:56;;;;;;;0.88;0.35;;;6.30;81.70;;;;;;5012060;28;20022;-75
2022/12/30 04:18:22;;;;;;;0.45;0.40;;;6.30;81.70;;;;;;5012294;28;20025;-75
2022/12/30 04:20:48;;;;;;;0.55;0.22;;;6.30;81.80;;;;;;5012011;28;20038;-75
2022/12/30 04:23:16;;;;;;;0.20;0.10;;;6.30;81.80;;;;;;5012246;28;20030;-75
2022/12/30 04:25:41;;;;;;;2.83;0.20;;;6.30;81.60;;;;;;5012161;28;20022;-76
2022/12/30 04:28:07;;;;;;;0.20;0.20;;;6.30;81.60;;;;;;5012128;28;20037;-75
2022/12/30 04:30:36;;;;;;;0.43;0.10;;;6.30;81.50;;;;;;5012196;28;20321;-76
2022/12/30 04:33:02;;;;;;;0.63;0.20;;;6.30;81.60;;;;;;5012106;28;20390;-77
2022/12/30 04:35:28;;;;;;;0.13;0.10;;;6.30;81.70;;;;;;5012039;28;20037;-76
2022/12/30 04:37:54;;;;;;;1.08;0.10;;;6.20;81.70;;;;;;5012081;28;20030;-75
2022/12/30 04:40:20;;;;;;;0.38;0.28;;;6.20;82.00;;;;;;5011921;28;20060;-74
2022/12/30 04:42:46;;;;;;;1.25;1.15;;;6.20;82.30;;;;;;5011662;28;20115;-75
2022/12/30 04:45:12;;;;;;;3.38;2.60;;;6.20;82.70;;;;;;5013265;28;20026;-75
2022/12/30 04:47:37;;;;;;;2.83;2.30;;;6.10;82.90;;;;;;5012108;28;20387;-75
2022/12/30 04:50:03;;;;;;;1.55;1.30;;;6.10;83.00;;;;;;5012876;28;20026;-75
2022/12/30 04:52:29;;;;;;;2.85;1.27;;;6.10;83.20;;;;;;5016948;28;20045;-76
2022/12/30 04:54:55;;;;;;;2.47;1.05;;;6.10;83.30;;;;;;5015242;28;20043;-74
2022/12/30 04:57:21;;;;;;;0.70;0.65;;;6.10;83.30;;;;;;4999057;28;20524;-78
2022/12/30 04:59:46;;;;;;;1.13;0.60;;;6.10;83.30;;;;;;5015786;28;20032;-75
2022/12/30 05:02:12;;;;;;;0.68;0.43;;;6.00;83.90;;;;;;5015714;28;20556;-78
2022/12/30 05:04:38;;;;;;;2.03;0.50;;;6.10;83.20;;;;;;5015838;28;20059;-75
2022/12/30 05:07:04;;;;;;;0.52;0.50;;;6.00;83.10;;;;;;5015729;28;20026;-75
2022/12/30 05:09:30;;;;;;;1.92;0.80;;;6.00;83.00;;;;;;5015381;28;20510;-74
2022/12/30 05:11:55;;;;;;;1.88;0.63;;;6.00;84.00;;;;;;5015626;28;20126;-74
2022/12/30 05:14:21;;;;;;;0.30;0.30;;;6.00;83.20;;;;;;5015609;28;20030;-74
2022/12/30 05:16:46;;;;;;;2.28;0.40;;;6.00;83.20;;;;;;5015676;28;20117;-74
2022/12/30 05:19:13;;;;;;;0.60;0.20;;;6.00;83.30;;;;;;5015473;28;20022;-76
2022/12/30 05:21:39;;;;;;;0.57;0.30;;;6.00;82.60;;;;;;5016437;28;20402;-74
2022/12/30 05:26:49;;;;;;;0.65;0.45;;;5.90;82.10;;;;;;5016728;28;20468;-74
2022/12/30 05:29:14;;;;;;;0.30;0.20;;;5.90;82.10;;;;;;5015339;28;20030;-74
2022/12/30 05:31:40;;;;;;;1.88;0.40;;;5.90;82.30;;;;;;5015281;28;20025;-74
2022/12/30 05:34:06;;;;;;;2.83;1.17;;;6.00;81.70;;;;;;5015274;28;20474;-74
2022/12/30 05:36:32;;;;;;;2.53;0.63;;;6.00;82.20;;;;;;5014862;28;20022;-82
2022/12/30 05:38:57;;;;;;;0.85;0.43;;;6.00;82.40;;;;;;5015323;28;20026;-76
2022/12/30 05:41:23;;;;;;;2.25;0.30;;;6.00;82.50;;;;;;5014585;28;20057;-74
2022/12/30 05:43:49;;;;;;;1.58;0.52;;;6.00;82.40;;;;;;5015202;28;20036;-74
2022/12/30 05:46:15;;;;;;;3.08;0.90;;;5.90;82.30;;;;;;5014936;28;20073;-73
2022/12/30 05:48:40;;;;;;;3.70;1.13;;;6.00;82.40;;;;;;5014956;28;20022;-73
2022/12/30 05:51:06;;;;;;;2.55;0.80;;;5.90;82.50;;;;;;5014919;28;20026;-74
2022/12/30 05:53:31;;;;;;;2.72;0.90;;;5.90;82.70;;;;;;5016357;28;20113;-76
2022/12/30 05:55:58;;;;;;;3.55;0.73;;;5.90;82.90;;;;;;5014661;28;20033;-80
2022/12/30 05:58:24;;;;;;;2.03;1.00;;;5.80;82.50;;;;;;5014824;28;20355;-74
2022/12/30 06:00:50;;;;;;;3.40;0.70;;;5.80;82.80;;;;;;5014556;28;20025;-73
2022/12/30 06:03:16;;;;;;;0.45;0.28;;;5.80;82.80;;;;;;5014790;28;20489;-73
2022/12/30 06:05:42;;;;;;;1.73;1.10;;;5.80;83.00;;;;;;5014792;28;20050;-73
2022/12/30 06:08:08;;;;;;;1.05;0.55;;;5.70;84.10;;;;;;5014755;28;20061;-73
2022/12/30 06:10:34;;;;;;;1.10;0.50;;;5.60;83.70;;;;;;4998424;28;20088;-74
2022/12/30 06:13:01;;;;;;;1.55;0.43;;;5.60;83.20;;;;;;5014333;28;20030;-76
2022/12/30 06:15:26;;;;;;;5.43;1.38;;;5.60;84.00;;;;;;5014378;28;20026;-73
2022/12/30 06:17:52;;;;;;;2.13;1.10;;;5.60;83.20;;;;;;5014294;28;20105;-73
2022/12/30 06:20:18;;;;;;;1.23;0.85;;;5.70;83.20;;;;;;5014325;28;20029;-73
2022/12/30 06:22:43;;;;;;;1.42;0.60;;;5.70;83.30;;;;;;5014409;28;20390;-74
2022/12/30 06:25:09;;;;;;;1.60;1.00;;;5.70;83.30;;;;;;5014363;28;20026;-74
2022/12/30 06:27:34;;;;;;;1.98;1.17;;;5.60;83.20;;;;;;5014460;28;20026;-74
2022/12/30 06:30:01;;;;;;;3.15;1.38;;;5.60;84.10;;;;;;5014298;28;20018;-74
2022/12/30 06:32:27;;;;;;;0.80;0.50;;;5.60;83.20;;;;;;5014067;28;20037;-73
2022/12/30 06:34:52;;;;;;;1.13;0.40;;;5.70;83.10;;;;;;5013843;28;20022;-74
2022/12/30 06:37:18;;;;;;;1.45;0.30;;;5.70;83.10;;;;;;5014266;28;20105;-75
2022/12/30 06:39:43;;;;;;;0.65;0.20;;;5.70;82.80;;;;;;5014310;28;20382;-74
2022/12/30 06:42:09;;;;;;;1.08;0.52;;;5.80;82.40;;;;;;5014015;28;20085;-74
2022/12/30 06:44:34;;;;;;;0.38;0.20;;;5.80;82.00;;;;;;5013977;28;20026;-75
2022/12/30 06:47:00;;;;;;;2.65;0.50;;;5.80;81.80;;;;;;5013578;28;20466;-73
2022/12/30 06:49:25;;;;;;;0.95;0.22;;;5.80;81.70;;;;;;5012845;28;20026;-73
2022/12/30 06:51:51;;;;;;;0.45;0.20;;;5.90;82.60;;;;;;5013447;28;20026;-73
2022/12/30 06:54:17;;;;;;;0.65;0.40;;;5.90;81.50;;;;;;5013745;28;20030;-74
2022/12/30 06:56:43;;;;;;;1.50;0.40;;;5.80;81.40;;;;;;5013306;28;20029;-73
2022/12/30 06:59:08;;;;;;;0.88;0.30;;;5.90;81.70;;;;;;5012487;28;20030;-74
2022/12/30 07:01:34;;;;;;;1.17;0.28;;;5.80;81.60;;;;;;5012268;28;20052;-73
2022/12/30 07:03:59;;;;;;;0.43;0.20;;;5.80;81.60;;;;;;5012492;28;20030;-74
2022/12/30 07:06:25;;;;;;;0.65;0.35;;;5.80;81.70;;;;;;5012225;28;20388;-74
2022/12/30 07:08:51;;;;;;;2.35;0.38;;;5.80;81.70;;;;;;5013032;28;20026;-75
2022/12/30 07:11:16;;;;;;;2.00;0.70;;;5.70;81.70;;;;;;5013234;28;20022;-75
2022/12/30 07:13:42;;;;;;;6.93;0.45;;;5.80;81.60;;;;;;5012216;28;20022;-75
2022/12/30 07:16:08;;;;;;;1.13;0.45;;;5.80;81.40;;;;;;5013127;28;20065;-77
2022/12/30 07:18:34;;;;;;;3.17;0.60;;;5.70;82.40;;;;;;5013062;28;20018;-75
2022/12/30 07:20:59;;;;;;;1.23;0.60;;;5.80;81.60;;;;;;5014995;28;20038;-75
2022/12/30 07:23:25;;;;;;;2.58;0.90;;;5.80;81.40;;;;;;5012845;28;20033;-75
2022/12/30 07:25:50;;;;;;;2.80;0.90;;;5.80;81.20;;;;;;5012492;28;20425;-75
2022/12/30 07:28:17;;;;;;;2.70;0.75;;;5.80;81.90;;;;;;5012689;28;20025;-75
2022/12/30 07:30:42;;;;;;;1.00;0.40;;;5.90;80.80;;;;;;5012681;28;20532;-75
2022/12/30 07:33:09;;;;;;;6.32;3.22;;;5.90;80.70;;;;;;5013814;28;20022;-74
2022/12/30 07:35:34;;;;;;;2.83;0.85;;;5.90;80.80;;;;;;5012550;28;20026;-75
2022/12/30 07:38:00;;;;;;;2.10;0.60;;;5.90;80.70;;;;;;5012609;28;20014;-75
2022/12/30 07:40:25;;;;;;;1.20;0.38;;;6.00;80.60;;;;;;5012474;28;20046;-75
2022/12/30 07:42:51;;;;;;;3.17;0.50;;;5.90;81.20;;;;;;5012849;28;20430;-75
2022/12/30 07:45:17;;;;;;;1.75;0.88;;;6.00;80.30;;;;;;4996182;28;20033;-75
2022/12/30 07:47:43;;;;;;;5.63;1.50;;;6.00;80.30;;;;;;5012248;28;20048;-77
2022/12/30 07:50:10;;;;;;;3.22;0.70;;;6.00;80.40;;;;;;5012203;28;20026;-75
2022/12/30 07:52:36;;;;;;;0.75;0.47;;;5.90;80.40;;;;;;5011884;28;20536;-76
2022/12/30 07:55:01;;;;;;;4.72;1.08;;;5.90;80.40;;;;;;5012194;28;20114;-75
2022/12/30 07:57:28;;;;;;;0.35;0.30;;;6.00;80.50;;;;;;5012648;28;20026;-75
2022/12/30 07:59:54;;;;;;;5.25;0.55;;;6.00;80.70;;;;;;5012401;28;20029;-76
2022/12/30 08:02:19;;;;;;;2.25;1.15;;;6.00;80.60;;;;;;5011913;28;20037;-75
2022/12/30 08:04:47;;;;;;;2.95;0.90;;;6.10;80.50;;;;;;5013243;28;20589;-75
2022/12/30 08:07:14;;;;;;;2.95;0.85;;;6.10;80.50;;;;;;5012434;28;20030;-76
2022/12/30 08:09:41;;;;;;;3.25;1.10;;;6.30;80.60;;;;;;5012645;28;20037;-76
2022/12/30 08:12:07;;;;;;;2.05;0.70;;;6.40;80.40;;;;;;5019439;28;20526;-76
2022/12/30 08:14:32;;;;;;;1.35;0.80;;;6.40;81.30;;;;;;4995672;28;20129;-75
2022/12/30 08:16:58;;;;;;;3.78;1.48;;;6.80;85.00;;;;;;5013661;28;20426;-76
2022/12/30 08:19:24;;;;;;;3.22;0.55;;;7.30;83.20;;;;;;5012202;28;20033;-77
2022/12/30 08:21:50;;;;;;;0.88;0.40;;;7.70;81.50;;;;;;5013052;28;20471;-76
2022/12/30 08:24:15;;;;;;;6.50;0.85;;;8.20;79.20;;;;;;5010978;28;20029;-80
2022/12/30 08:26:41;;;;;;;2.97;0.57;;;8.70;77.50;;;;;;5012183;28;20041;-81
2022/12/30 08:29:07;;;;;;;2.85;0.95;;;9.10;74.50;;;;;;5011998;28;20014;-81
2022/12/30 08:31:38;;;;;;;5.85;1.08;;;9.50;72.40;;;;;;5011357;28;20030;-79
2022/12/30 08:34:05;;;;;;;6.38;1.25;;;9.70;70.80;;;;;;4995989;28;20033;-77
2022/12/30 08:36:30;;;;;;;3.05;0.75;;;9.90;68.80;;;;;;5012005;28;20124;-77
2022/12/30 08:39:00;;;;;;;1.83;0.55;;;10.20;67.60;;;;;;5012245;28;20049;-83
2022/12/30 08:41:34;;;;;;;5.60;0.85;;;10.50;65.90;;;;;;5013869;28;20041;-81
2022/12/30 08:44:00;;;;;;;1.27;0.80;;;10.70;64.30;;;;;;5012793;28;20113;-72
2022/12/30 08:46:28;;;;;;;1.20;0.50;;;10.80;63.30;;;;;;5012991;28;20033;-73
2022/12/30 08:48:54;;;;;;;1.27;0.60;;;10.60;62.90;;;;;;5012060;28;20079;-74
2022/12/30 08:51:20;;;;;;;1.08;0.40;;;10.30;63.70;;;;;;5012117;28;20025;-75
2022/12/30 08:53:46;;;;;;;1.33;0.50;;;10.00;64.60;;;;;;5011764;28;20026;-74
2022/12/30 08:56:18;;;;;;;1.02;0.40;;;9.80;65.50;;;;;;5011738;28;20026;-74
2022/12/30 08:58:45;;;;;;;1.75;1.50;;;9.70;66.00;;;;;;5011767;28;20061;-74
2022/12/30 09:01:17;;;;;;;0.90;0.65;;;9.70;66.20;;;;;;5011114;28;20505;-73
2022/12/30 09:03:43;;;;;;;0.88;0.70;;;9.70;66.40;;;;;;5011660;28;20113;-78
2022/12/30 09:06:11;;;;;;;1.70;0.90;;;9.80;66.40;;;;;;5011703;28;20076;-74
2022/12/30 09:08:37;;;;;;;1.63;0.70;;;10.00;65.90;;;;;;4995947;28;20125;-78
2022/12/30 09:11:15;;;;;;;1.30;0.88;;;10.10;65.50;;;;;;5011919;28;20054;-82
2022/12/30 09:13:41;;;;;;;3.50;0.80;;;10.20;65.00;;;;;;5012545;28;20026;-80
2022/12/30 09:16:10;;;;;;;1.02;0.80;;;10.30;64.70;;;;;;5012184;28;20491;-75
2022/12/30 09:18:37;;;;;;;1.40;0.50;;;10.60;63.70;;;;;;5011606;28;20026;-74
2022/12/30 09:21:03;;;;;;;0.60;0.50;;;10.80;62.20;;;;;;5011157;28;20121;-74
2022/12/30 09:23:29;;;;;;;1.08;0.82;;;11.00;61.50;;;;;;5013214;28;20030;-76
2022/12/30 09:25:54;;;;;;;0.85;0.68;;;11.10;60.40;;;;;;5011075;28;20018;-74
2022/12/30 09:28:20;;;;;;;3.05;1.40;;;11.20;59.30;;;;;;5012848;28;20467;-77
2022/12/30 09:30:46;;;;;;;1.38;1.13;;;11.30;58.80;;;;;;5011504;28;20025;-76
2022/12/30 09:33:12;;;;;;;0.95;0.60;;;11.40;58.60;;;;;;4988571;28;20122;-76
2022/12/30 09:35:37;;;;;;;1.08;0.70;;;11.50;58.10;;;;;;5001899;28;20061;-74
2022/12/30 09:38:03;;;;;;;2.13;0.82;;;11.60;57.70;;;;;;5004168;28;20019;-74
2022/12/30 09:40:56;;;;;;;2.65;0.90;;;11.70;57.30;;;;;;5007787;28;20042;-74
2022/12/30 09:43:36;;;;;;;1.75;0.60;;;11.80;57.10;;;;;;5011714;28;20029;-74
2022/12/30 09:46:23;;;;;;;1.00;0.60;;;11.90;56.90;;;;;;5009196;28;20411;-75
2022/12/30 09:49:21;;;;;;;2.72;1.77;;;11.60;56.50;;;;;;5013603;28;20026;-74
2022/12/30 09:51:54;;;;;;;0.80;0.77;;;11.70;57.20;;;;;;4980575;28;20082;-79
2022/12/30 09:54:24;;;;;;;0.80;0.63;;;11.90;57.20;;;;;;5010026;28;20045;-75
2022/12/30 09:56:57;;;;;;;2.33;0.77;;;11.90;56.90;;;;;;5013656;28;20028;-75
2022/12/30 09:59:38;;;;;;;0.88;0.63;;;11.90;56.40;;;;;;5012320;28;20040;-77
2022/12/30 10:02:22;;;;;;;2.28;0.65;;;11.90;56.50;;;;;;5013678;28;20030;-73
2022/12/30 10:04:47;;;;;;;2.30;0.80;;;11.90;56.50;;;;;;5009674;28;20545;-79
2022/12/30 10:07:31;;;;;;;0.50;0.50;;;11.90;56.80;;;;;;5013829;28;20022;-76
2022/12/30 10:10:19;;;;;;;2.03;0.95;;;12.00;55.90;;;;;;5010831;28;20022;-75
2022/12/30 10:13:12;;;;;;;1.27;0.50;;;12.10;55.60;;;;;;5014073;28;20151;-75
2022/12/30 10:15:47;;;;;;;1.85;1.00;;;12.30;55.10;;;;;;5012985;28;20022;-75
2022/12/30 10:18:44;;;;;;;2.42;0.70;;;12.40;54.90;;;;;;5013098;28;20065;-74
2022/12/30 10:21:33;;;;;;;0.70;0.60;;;12.40;54.90;;;;;;5012216;28;20042;-74
2022/12/30 10:24:08;;;;;;;3.35;1.85;;;12.40;54.40;;;;;;5010310;28;20100;-76
2022/12/30 10:26:47;;;;;;;1.95;0.70;;;12.40;53.60;;;;;;5012967;28;20049;-75
2022/12/30 10:29:30;;;;;;;1.40;0.50;;;12.20;54.20;;;;;;5012938;28;20029;-81
2022/12/30 10:31:57;;;;;;;1.35;0.73;;;12.10;55.40;;;;;;5010313;28;20454;-75
2022/12/30 10:34:29;;;;;;;1.00;0.45;;;12.00;55.20;;;;;;5013691;28;20026;-74
2022/12/30 10:36:57;;;;;;;1.17;0.70;;;11.90;55.40;;;;;;5012992;28;20029;-80
2022/12/30 10:39:28;;;;;;;2.53;0.90;;;12.10;55.70;;;;;;5012642;28;20049;-81
2022/12/30 10:42:39;;;;;;;0.77;0.60;;;12.30;55.50;;;;;;4996568;28;20069;-82
2022/12/30 10:45:33;;;;;;;2.30;0.70;;;12.30;53.80;;;;;;5023592;28;20030;-75
2022/12/30 10:48:28;;;;;;;2.72;0.63;;;12.10;54.50;;;;;;4974007;28;20026;-74
2022/12/30 10:50:54;;;;;;;1.53;0.60;;;12.10;55.10;;;;;;5013571;28;20026;-85
2022/12/30 10:53:23;;;;;;;1.45;0.52;;;11.50;56.50;;;;;;4997719;28;20371;-78
2022/12/30 10:55:57;;;;;;;0.88;0.60;;;11.30;57.10;;;;;;5014118;28;20025;-88
2022/12/30 10:58:47;;;;;;;0.60;0.50;;;11.20;57.70;;;;;;5014513;28;20037;-85
2022/12/30 11:01:22;;;;;;;1.65;0.40;;;11.10;58.60;;;;;;5014502;28;20116;-82
2022/12/30 11:03:53;;;;;;;1.00;0.50;;;11.10;58.90;;;;;;5014625;28;20022;-77
2022/12/30 11:06:27;;;;;;;0.98;0.70;;;11.10;58.40;;;;;;5014221;28;20069;-80
2022/12/30 11:09:14;;;;;;;2.72;1.38;;;11.30;58.30;;;;;;5014274;28;20080;-82
2022/12/30 11:14:45;;;;;;;1.00;0.50;;;11.20;57.30;;;;;;5015274;28;20083;-82
2022/12/30 11:17:19;;;;;;;1.38;0.73;;;10.50;59.90;;;;;;5014155;28;20030;-83
2022/12/30 11:20:06;;;;;;;1.83;0.73;;;10.10;61.50;;;;;;5014161;28;20378;-84
2022/12/30 11:22:32;;;;;;;0.40;0.40;;;10.00;62.60;;;;;;5014061;28;20034;-77
2022/12/30 11:25:21;;;;;;;1.27;0.57;;;10.00;63.90;;;;;;5013357;28;20439;-80
2022/12/30 11:27:50;;;;;;;0.75;0.30;;;9.90;63.40;;;;;;5013510;28;20026;-80
2022/12/30 11:30:31;;;;;;;0.93;0.60;;;10.00;63.20;;;;;;5012973;28;20116;-76
2022/12/30 11:32:59;;;;;;;1.90;0.60;;;10.10;63.10;;;;;;5013285;28;20037;-82
2022/12/30 11:35:38;;;;;;;1.15;0.60;;;10.20;62.30;;;;;;5012764;28;20379;-77
2022/12/30 11:38:28;;;;;;;2.22;0.55;;;10.20;62.50;;;;;;5013890;28;20026;-74
2022/12/30 11:40:54;;;;;;;1.33;0.63;;;10.20;62.40;;;;;;5013215;28;20092;-79
2022/12/30 11:43:21;;;;;;;2.25;0.32;;;10.20;62.70;;;;;;5014354;28;20030;-77
2022/12/30 11:45:55;;;;;;;0.75;0.40;;;10.20;62.50;;;;;;5017870;28;20022;-85
2022/12/30 11:48:31;;;;;;;1.88;0.28;;;10.10;62.10;;;;;;5017732;28;20030;-84
2022/12/30 11:50:58;;;;;;;1.27;0.40;;;9.90;63.50;;;;;;5016764;28;20433;-81
2022/12/30 11:53:33;;;;;;;0.52;0.30;;;10.00;63.90;;;;;;5015994;28;20026;-80
2022/12/30 11:55:59;;;;;;;0.73;0.30;;;9.90;64.00;;;;;;5011944;28;20070;-78
2022/12/30 11:58:25;;;;;;;0.70;0.40;;;9.80;64.40;;;;;;5012048;28;20026;-77
2022/12/30 12:01:24;;;;;;;1.52;0.50;;;9.80;64.80;;;;;;5012502;28;20387;-83
2022/12/30 12:03:57;;;;;;;2.35;0.40;;;9.50;65.70;;;;;;5022328;28;20041;-83
2022/12/30 12:06:23;;;;;;;0.63;0.60;;;9.50;66.30;;;;;;5012317;28;20049;-82
2022/12/30 12:08:49;;;;;;;1.30;0.45;;;9.40;66.70;;;;;;5012213;28;20312;-76
2022/12/30 12:11:23;;;;;;;0.85;0.30;;;9.40;67.10;;;;;;5012349;28;20518;-77
2022/12/30 12:14:01;;;;;;;2.20;0.40;;;9.20;67.80;;;;;;5012218;28;20113;-76
2022/12/30 12:16:44;;;;;;;1.55;0.43;;;9.10;68.70;;;;;;5011728;28;20030;-79
2022/12/30 12:19:45;;;;;;;1.05;0.52;;;9.00;68.80;;;;;;5013704;28;20419;-79
2022/12/30 12:22:26;;;;;;;0.60;0.50;;;9.00;69.20;;;;;;5011958;28;20037;-75
2022/12/30 12:25:02;;;;;;;0.40;0.40;;;8.80;69.80;;;;;;5012203;28;20026;-77
2022/12/30 12:27:28;;;;;;;0.55;0.30;;;8.80;70.60;;;;;;5012032;28;20022;-86
2022/12/30 12:29:55;;;;;;;0.57;0.30;;;8.80;70.50;;;;;;5013419;28;20029;-85
2022/12/30 12:32:49;;;;;;;0.40;0.40;;;8.80;68.50;;;;;;5013881;28;20064;-85
2022/12/30 12:35:22;;;;;;;0.70;0.50;;;8.80;69.40;;;;;;5013588;28;20060;-87
2022/12/30 12:38:00;;;;;;;0.80;0.50;;;8.80;70.40;;;;;;5015824;28;20033;-88
2022/12/30 12:41:00;;;;;;;1.80;0.50;;;8.80;70.80;;;;;;5013572;28;20046;-85
2022/12/30 12:43:35;;;;;;;1.63;0.90;;;8.80;70.60;;;;;;5013942;28;20038;-86
2022/12/30 12:46:32;;;;;;;2.13;0.80;;;8.80;70.20;;;;;;5017375;28;20026;-84
2022/12/30 12:49:01;;;;;;;1.98;0.90;;;8.70;70.70;;;;;;5011208;28;20034;-86
2022/12/30 12:51:52;;;;;;;2.08;1.10;;;8.60;70.90;;;;;;5024289;28;20034;-84
2022/12/30 12:54:24;;;;;;;6.95;4.07;;;8.70;71.80;;;;;;5024848;28;20049;-86
2022/12/30 12:57:17;;;;;;;11.60;4.82;;;8.70;70.10;;;;;;5024768;28;20033;-87
2022/12/30 13:00:16;;;;;;;6.97;3.00;;;8.80;69.60;;;;;;5024543;28;20029;-87
2022/12/30 13:03:06;;;;;;;5.32;2.83;;;8.80;70.20;;;;;;5026126;28;20045;-86
2022/12/30 13:05:45;;;;;;;5.97;2.30;;;8.70;70.60;;;;;;5025206;28;20053;-84
2022/12/30 13:08:31;;;;;;;4.07;1.83;;;8.70;71.20;;;;;;5026827;28;20022;-88
2022/12/30 13:11:11;;;;;;;3.13;1.45;;;8.70;70.50;;;;;;5014565;28;20117;-86
2022/12/30 13:14:02;;;;;;;5.25;2.22;;;8.70;70.50;;;;;;5016780;28;20022;-87
2022/12/30 13:16:35;;;;;;;4.35;1.60;;;8.60;70.10;;;;;;5005828;28;20084;-89
2022/12/30 13:19:02;;;;;;;3.55;1.60;;;8.60;70.70;;;;;;5001245;28;20034;-84
2022/12/30 13:21:28;;;;;;;2.45;1.23;;;8.70;70.60;;;;;;5016295;28;20074;-86
2022/12/30 13:23:59;;;;;;;2.28;1.90;;;8.70;70.80;;;;;;5015975;28;20029;-86
2022/12/30 13:26:27;;;;;;;2.70;1.60;;;8.70;70.50;;;;;;5016517;28;20049;-87
2022/12/30 13:28:56;;;;;;;2.55;1.88;;;8.70;70.50;;;;;;5015727;28;20045;-86
2022/12/30 13:31:49;;;;;;;5.95;2.03;;;8.70;70.50;;;;;;5016256;28;20030;-86
2022/12/30 13:34:39;;;;;;;2.90;1.90;;;8.70;70.50;;;;;;5015992;28;20044;-84
2022/12/30 13:37:30;;;;;;;0.95;0.70;;;8.90;70.10;;;;;;5016387;28;20029;-85
2022/12/30 13:40:19;;;;;;;0.85;0.50;;;9.00;70.60;;;;;;5015830;28;20018;-87
2022/12/30 13:43:06;;;;;;;1.35;0.50;;;9.00;70.80;;;;;;5015879;28;20094;-86
2022/12/30 13:45:36;;;;;;;0.47;0.32;;;8.80;71.40;;;;;;5015618;28;20030;-84
2022/12/30 13:48:16;;;;;;;1.17;0.50;;;8.70;72.80;;;;;;5015724;28;20498;-80
2022/12/30 13:50:43;;;;;;;1.63;0.60;;;8.60;74.60;;;;;;5015615;28;20442;-87
2022/12/30 13:53:29;;;;;;;1.15;1.00;;;8.50;75.10;;;;;;5015882;28;20041;-86
2022/12/30 13:55:55;;;;;;;1.65;0.98;;;8.40;76.20;;;;;;5016141;28;20032;-86
2022/12/30 13:58:27;;;;;;;0.73;0.55;;;8.30;77.90;;;;;;5016595;28;20053;-85
2022/12/30 14:01:19;;;;;;;0.85;0.82;;;8.20;78.20;;;;;;5016447;28;20383;-85
2022/12/30 14:03:46;;;;;;;0.50;0.50;;;8.10;79.00;;;;;;5028728;28;20030;-85
2022/12/30 14:06:48;;;;;;;2.50;0.88;;;8.10;79.10;;;;;;5015908;28;20101;-85
2022/12/30 14:09:17;;;;;;;0.98;0.80;;;8.10;79.30;;;;;;5031585;28;20470;-85
2022/12/30 14:12:27;;;;;;;2.78;1.00;;;8.10;79.50;;;;;;5015804;28;20063;-86